Somerset, New Jersey
Current Conditions -  °F | °C
As of 10:53 AM on Friday 24 Oct 2014 (Local Time) from KSMQ Reporting Station
Overcast Overcast  
Wind Chill: 58°   Ceiling: 3600
Heat Index: 58°   Visibility: 10mi
Dew Point: 42°   Wind: 8mph
Humidity: 56%   Direction: 350°N
Pressure: 29.84"   Gusts: NA
Location:  40.5°N, 74.52°W
Report Text: KSMQ 241453Z AUTO 35007KT 10SM OVC036 14/06 A2984 RMK AO2 SLP104 T01440056 51008
Loading
Personal Weather Stations






























Interactive Weather Map New forecast layout! Learn more

10-Day Weather Forecast

Advertisements
Track Severe Weather on mobile